Time;durP1;ratioP1;P1;durP2;ratioP2;P2;SDS_P1;SDS_P2;PMS_P1;PMS_P2;Temp;Humidity;BMP_temperature;BMP_pressure;BME280_temperature;BME280_humidity;BME280_pressure;Samples;Min_cycle;Max_cycle;Signal;HPM_P1;HPM_P2
2022/12/10 00:01:51;;;;;;;11.00;4.90;;;;;;;8.31;86.24;96228.77;107710;1269;69214;-70
2022/12/10 00:04:21;;;;;;;14.80;4.80;;;;;;;8.32;86.07;96223.13;107664;1269;59771;-70
2022/12/10 00:06:51;;;;;;;17.80;4.70;;;;;;;8.33;85.94;96219.05;107684;1267;59677;-70
2022/12/10 00:09:21;;;;;;;8.30;4.60;;;;;;;8.36;85.93;96220.94;107613;1266;71924;-70
2022/12/10 00:11:50;;;;;;;14.40;5.70;;;;;;;8.37;85.78;96218.92;107746;1269;69023;-70
2022/12/10 00:14:20;;;;;;;10.60;4.90;;;;;;;8.39;85.28;96216.89;107727;1269;69310;-70
2022/12/10 00:16:50;;;;;;;15.40;5.40;;;;;;;8.40;85.42;96216.80;107706;1266;59726;-70
2022/12/10 00:19:19;;;;;;;10.40;4.60;;;;;;;8.40;85.31;96218.46;107674;1269;59769;-71
2022/12/10 00:21:49;;;;;;;15.30;5.30;;;;;;;8.42;85.17;96218.58;107652;1269;71260;-70
2022/12/10 00:24:18;;;;;;;12.20;5.40;;;;;;;8.42;85.02;96220.09;107644;1266;70166;-70
2022/12/10 00:26:47;;;;;;;10.40;4.40;;;;;;;8.44;85.04;96217.67;107677;1266;68443;-70
2022/12/10 00:29:18;;;;;;;15.70;5.00;;;;;;;8.46;84.91;96217.71;107657;1261;59720;-71
2022/12/10 00:31:47;;;;;;;14.20;4.80;;;;;;;8.47;84.75;96214.35;107661;1269;59671;-71
2022/12/10 00:34:16;;;;;;;10.60;4.50;;;;;;;8.49;84.46;96219.70;107779;1265;70614;-69
2022/12/10 00:36:48;;;;;;;12.60;5.00;;;;;;;8.51;84.52;96221.05;107630;1269;69186;-70
2022/12/10 00:39:19;;;;;;;11.10;5.50;;;;;;;8.53;84.41;96221.23;107625;1266;69586;-70
2022/12/10 00:41:49;;;;;;;17.70;5.00;;;;;;;8.55;84.24;96217.29;107678;1265;59769;-70
2022/12/10 00:44:20;;;;;;;14.40;4.60;;;;;;;8.56;84.10;96214.09;107460;1268;59669;-70
2022/12/10 00:46:50;;;;;;;8.60;4.80;;;;;;;8.57;84.12;96210.16;107680;1270;71246;-70
2022/12/10 00:49:22;;;;;;;12.00;4.10;;;;;;;8.58;83.87;96206.38;107641;1265;68650;-71
2022/12/10 00:51:52;;;;;;;15.40;5.40;;;;;;;8.61;83.83;96207.25;107473;1266;69171;-71
2022/12/10 00:54:23;;;;;;;14.00;5.10;;;;;;;8.61;83.79;96204.23;107688;1270;59750;-71
2022/12/10 00:56:52;;;;;;;9.10;4.80;;;;;;;8.62;83.66;96201.36;107641;1263;59710;-71
2022/12/10 00:59:22;;;;;;;12.90;5.20;;;;;;;8.62;83.51;96201.00;107611;1269;70712;-70
2022/12/10 01:01:52;;;;;;;13.50;5.30;;;;;;;8.63;83.15;96199.88;107694;1264;69118;-70
2022/12/10 01:04:23;;;;;;;10.80;5.20;;;;;;;8.64;83.34;96201.38;107603;1265;69301;-70
2022/12/10 01:06:53;;;;;;;;;;;;;;;8.64;83.47;96199.48;107610;1268;59785;-70
2022/12/10 01:09:29;;;;;;;11.50;5.70;;;;;;;8.62;83.58;96199.14;107669;1265;59800;-70
2022/12/10 01:12:01;;;;;;;11.40;5.20;;;;;;;8.61;83.82;96197.52;107477;1266;71337;-69
2022/12/10 01:14:33;;;;;;;10.20;5.20;;;;;;;8.60;83.91;96188.73;107713;1265;68322;-69
2022/12/10 01:17:05;;;;;;;17.70;5.40;;;;;;;8.56;85.10;96185.05;107652;1269;67674;-69
2022/12/10 01:19:35;;;;;;;11.20;5.30;;;;;;;8.53;84.90;96184.29;107503;1270;59775;-70
2022/12/10 01:22:05;;;;;;;14.20;6.40;;;;;;;8.48;85.57;96179.30;107528;1266;59786;-69
2022/12/10 01:24:38;;;;;;;8.30;5.60;;;;;;;8.44;87.21;96177.59;107597;1266;70740;-69
2022/12/10 01:27:08;;;;;;;11.60;6.20;;;;;;;8.39;88.76;96174.66;107603;1265;68557;-70
2022/12/10 01:29:38;;;;;;;21.80;9.10;;;;;;;8.35;89.08;96173.08;107621;1270;69901;-70
2022/12/10 01:32:09;;;;;;;18.00;8.00;;;;;;;8.30;88.37;96173.17;107520;1269;59729;-70
2022/12/10 01:34:40;;;;;;;13.60;6.60;;;;;;;8.25;88.77;96171.11;107599;1266;59777;-70
2022/12/10 01:37:10;;;;;;;12.10;6.30;;;;;;;8.23;88.45;96169.77;107604;1265;71383;-71
2022/12/10 01:39:40;;;;;;;12.50;6.90;;;;;;;8.20;90.82;96167.96;107604;1269;69370;-69
2022/12/10 01:42:13;;;;;;;13.40;7.00;;;;;;;8.17;90.22;96166.05;107605;1266;69228;-70
2022/12/10 01:44:42;;;;;;;12.60;6.20;;;;;;;8.15;90.08;96159.43;107640;1269;59790;-71
2022/12/10 01:47:12;;;;;;;10.10;5.30;;;;;;;8.12;92.00;96160.17;107532;1270;59668;-71
2022/12/10 01:49:42;;;;;;;12.70;6.10;;;;;;;8.13;91.09;96157.20;107640;1269;71302;-71
2022/12/10 01:52:14;;;;;;;14.10;5.70;;;;;;;8.13;90.89;96155.80;107648;1269;68407;-71
2022/12/10 01:54:46;;;;;;;12.50;5.20;;;;;;;8.13;90.97;96154.40;107475;1270;69124;-70
2022/12/10 01:57:20;;;;;;;14.30;5.90;;;;;;;8.14;90.94;96154.36;107521;1266;59778;-70
2022/12/10 02:00:00;;;;;;;10.40;6.20;;;;;;;8.13;90.74;96153.52;107649;1266;59769;-71
2022/12/10 02:03:00;;;;;;;11.40;5.70;;;;;;;8.12;92.71;96153.96;107677;1269;71700;-71
2022/12/10 02:05:53;;;;;;;12.80;6.60;;;;;;;8.11;91.65;96158.06;107610;1268;69277;-71
2022/12/10 02:08:34;;;;;;;13.90;6.50;;;;;;;8.08;92.35;96158.97;107635;1269;69904;-71
2022/12/10 02:11:19;;;;;;;9.80;6.00;;;;;;;8.07;92.61;96156.85;107589;1265;59688;-71
2022/12/10 02:14:15;;;;;;;8.70;4.90;;;;;;;8.06;93.35;96157.23;107608;1270;59751;-71
2022/12/10 02:17:01;;;;;;;14.20;6.20;;;;;;;8.06;93.58;96154.44;107588;1269;71323;-70
2022/12/10 02:19:57;;;;;;;11.90;5.90;;;;;;;8.04;94.35;96162.66;107614;1266;68442;-70
2022/12/10 02:22:42;;;;;;;10.30;6.30;;;;;;;8.03;93.17;96161.17;107485;1270;68511;-70
2022/12/10 02:25:14;;;;;;;13.20;5.70;;;;;;;8.01;93.62;96160.30;107642;1265;59741;-70
2022/12/10 02:28:27;;;;;;;11.70;5.90;;;;;;;7.98;94.10;96158.27;107688;1265;59678;-70
2022/12/10 02:30:59;;;;;;;7.90;5.60;;;;;;;7.97;94.59;96159.77;107372;1269;72026;-69
2022/12/10 02:33:30;;;;;;;10.60;5.60;;;;;;;7.96;95.15;96161.61;107624;1270;69807;-69
2022/12/10 02:36:02;;;;;;;13.10;5.70;;;;;;;7.95;95.31;96159.55;107550;1268;69429;-69
2022/12/10 02:38:36;;;;;;;13.20;5.40;;;;;;;7.95;95.80;96159.92;107627;1269;59738;-69
2022/12/10 02:41:24;;;;;;;14.50;6.00;;;;;;;7.94;94.27;96155.27;107461;1269;59674;-69
2022/12/10 02:43:58;;;;;;;14.90;7.20;;;;;;;7.93;95.88;96150.34;107661;1269;71280;-69
2022/12/10 02:46:29;;;;;;;12.60;6.30;;;;;;;7.91;96.94;96145.86;107626;1269;68524;-70
2022/12/10 02:49:03;;;;;;;13.20;6.40;;;;;;;7.87;97.45;96141.63;107551;1269;69922;-70
2022/12/10 02:51:33;;;;;;;14.50;6.50;;;;;;;7.87;97.44;96143.90;107620;1269;60281;-69
2022/12/10 02:54:05;;;;;;;12.20;5.90;;;;;;;7.87;96.92;96145.29;107456;1266;59766;-69
2022/12/10 02:56:55;;;;;;;15.70;6.20;;;;;;;7.87;97.27;96144.04;107611;1265;72112;-69
2022/12/10 02:59:33;;;;;;;10.10;5.00;;;;;;;7.88;97.69;96148.66;107489;1270;69241;-69
2022/12/10 03:02:24;;;;;;;8.30;5.00;;;;;;;7.88;98.43;96153.70;107470;1266;69271;-69
2022/12/10 03:05:02;;;;;;;12.80;7.40;;;;;;;7.88;98.23;96152.83;107630;1265;59715;-69
2022/12/10 03:07:52;;;;;;;10.00;6.20;;;;;;;7.88;97.74;96158.23;107609;1266;59783;-70
2022/12/10 03:10:43;;;;;;;10.10;5.70;;;;;;;7.88;98.41;96161.83;107685;1270;73106;-69
2022/12/10 03:13:16;;;;;;;12.70;5.80;;;;;;;7.88;97.60;96160.50;107634;1266;68756;-69
2022/12/10 03:15:47;;;;;;;7.80;5.10;;;;;;;7.88;97.56;96163.61;107476;1270;69300;-69
2022/12/10 03:18:20;;;;;;;11.50;5.90;;;;;;;7.89;97.71;96161.81;107446;1270;59698;-69
2022/12/10 03:20:53;;;;;;;11.10;6.10;;;;;;;7.89;98.65;96160.71;107431;1270;59680;-71
2022/12/10 03:23:26;;;;;;;9.80;5.80;;;;;;;7.90;98.72;96156.33;107594;1269;71291;-70
2022/12/10 03:25:57;;;;;;;11.00;5.50;;;;;;;7.89;98.89;96156.02;107555;1266;68501;-70
2022/12/10 03:28:30;;;;;;;12.80;5.90;;;;;;;7.89;98.99;96159.48;107611;1265;68745;-70
2022/12/10 03:31:02;;;;;;;7.40;5.70;;;;;;;7.89;99.25;96162.65;107621;1266;59727;-70
2022/12/10 03:33:32;;;;;;;11.40;5.20;;;;;;;7.87;99.06;96165.05;107769;1265;59716;-70
2022/12/10 03:36:02;;;;;;;11.40;6.30;;;;;;;7.85;99.17;96168.84;107619;1269;70468;-69
2022/12/10 03:38:36;;;;;;;10.50;6.20;;;;;;;7.83;99.29;96167.30;107708;1266;69222;-69
2022/12/10 03:41:06;;;;;;;10.10;5.50;;;;;;;7.79;99.61;96171.59;107630;1265;68764;-70
2022/12/10 03:43:49;;;;;;;13.00;6.80;;;;;;;7.77;99.45;96175.46;107598;1269;59762;-70
2022/12/10 03:46:19;;;;;;;11.60;6.80;;;;;;;7.73;98.67;96175.92;107598;1265;59732;-69
2022/12/10 03:48:50;;;;;;;11.80;6.20;;;;;;;7.71;98.64;96176.47;107633;1265;71278;-70
2022/12/10 03:51:21;;;;;;;11.00;6.00;;;;;;;7.70;99.95;96178.14;107621;1269;68614;-69
2022/12/10 03:53:51;;;;;;;11.40;6.40;;;;;;;7.69;100.00;96175.95;107618;1265;68674;-70
2022/12/10 03:56:21;;;;;;;9.20;5.50;;;;;;;7.69;100.00;96179.42;107624;1265;59726;-70
2022/12/10 03:58:50;;;;;;;10.70;5.70;;;;;;;7.66;100.00;96179.21;107642;1265;59696;-68
2022/12/10 04:01:20;;;;;;;11.20;7.30;;;;;;;7.65;100.00;96179.01;107620;1269;70666;-69
2022/12/10 04:03:50;;;;;;;10.40;5.70;;;;;;;7.61;100.00;96174.14;107612;1269;69292;-69
2022/12/10 04:06:21;;;;;;;12.90;6.40;;;;;;;7.56;100.00;96174.33;107651;1265;69926;-69
2022/12/10 04:08:53;;;;;;;;;;;;;;;7.51;100.00;96169.73;107557;1266;59791;-69
2022/12/10 04:11:27;;;;;;;11.20;5.50;;;;;;;7.48;100.00;96168.42;107677;1265;59729;-69
2022/12/10 04:16:44;;;;;;;10.30;5.50;;;;;;;7.45;100.00;96165.69;107678;1265;69539;-69
2022/12/10 04:19:17;;;;;;;9.30;6.20;;;;;;;7.44;100.00;96168.43;107619;1268;69239;-70
2022/12/10 04:27:30;;;;;;;15.70;6.30;;;;;;;7.35;98.80;96165.99;107637;1269;71535;-70
2022/12/10 04:30:00;;;;;;;15.70;8.10;;;;;;;7.32;99.37;96161.73;107771;1269;69808;-70
2022/12/10 04:32:29;;;;;;;15.10;7.60;;;;;;;7.30;100.00;96158.89;107626;1269;68349;-70
2022/12/10 04:35:00;;;;;;;15.80;10.30;;;;;;;7.28;100.00;96158.02;107659;1269;59983;-70
2022/12/10 04:37:29;;;;;;;17.90;10.40;;;;;;;7.26;100.00;96158.54;107648;1260;60106;-70
2022/12/10 04:39:58;;;;;;;17.90;11.30;;;;;;;7.25;100.00;96155.55;107718;1269;71325;-70
2022/12/10 04:42:27;;;;;;;12.10;9.70;;;;;;;7.24;100.00;96157.18;107622;1269;69070;-70
2022/12/10 04:44:56;;;;;;;29.80;16.00;;;;;;;7.23;100.00;96156.36;107607;1265;69908;-70
2022/12/10 04:47:26;;;;;;;23.30;17.70;;;;;;;7.22;100.00;96152.11;107773;1266;59784;-70
2022/12/10 04:49:56;;;;;;;28.20;17.30;;;;;;;7.21;100.00;96151.15;107629;1265;59709;-70
2022/12/10 04:52:25;;;;;;;22.60;16.70;;;;;;;7.19;100.00;96149.55;107739;1269;71446;-70
2022/12/10 04:54:54;;;;;;;21.40;16.00;;;;;;;7.19;100.00;96152.70;107642;1269;69294;-68
2022/12/10 04:57:23;;;;;;;26.00;16.70;;;;;;;7.18;100.00;96148.98;107607;1266;69520;-69
2022/12/10 04:59:52;;;;;;;26.80;15.40;;;;;;;7.16;100.00;96147.88;107592;1269;59717;-69
2022/12/10 05:02:22;;;;;;;23.10;13.90;;;;;;;7.16;100.00;96143.55;107577;1269;59735;-69
2022/12/10 05:04:51;;;;;;;20.40;13.80;;;;;;;7.16;100.00;96144.27;107640;1265;71130;-67
2022/12/10 05:07:20;;;;;;;22.70;15.10;;;;;;;7.14;100.00;96147.65;107602;1269;69064;-69
2022/12/10 05:09:49;;;;;;;20.50;12.60;;;;;;;7.15;100.00;96146.91;107623;1269;69963;-70
2022/12/10 05:12:18;;;;;;;23.40;14.10;;;;;;;7.14;100.00;96148.17;107594;1265;59709;-69
2022/12/10 05:14:47;;;;;;;22.20;12.70;;;;;;;7.14;100.00;96148.52;107635;1269;59746;-69
2022/12/10 05:17:16;;;;;;;19.80;13.00;;;;;;;7.14;100.00;96150.27;107658;1265;71104;-69
2022/12/10 05:19:45;;;;;;;14.40;8.80;;;;;;;7.17;100.00;96150.77;107734;1266;68659;-69
2022/12/10 05:25:02;;;;;;;15.40;10.30;;;;;;;7.26;100.00;96151.44;107465;1269;59719;-69
2022/12/10 05:27:33;;;;;;;15.10;10.20;;;;;;;7.28;100.00;96151.45;107661;1265;59787;-68
2022/12/10 05:30:02;;;;;;;15.80;9.00;;;;;;;7.30;100.00;96152.32;107657;1265;71520;-69
2022/12/10 05:32:33;;;;;;;20.80;11.80;;;;;;;7.32;100.00;96152.70;107663;1269;69837;-69
2022/12/10 05:35:04;;;;;;;15.70;10.60;;;;;;;7.34;100.00;96146.30;107637;1269;69903;-69
2022/12/10 05:37:33;;;;;;;14.90;9.20;;;;;;;7.33;100.00;96145.97;107632;1266;60098;-70
2022/12/10 05:40:02;;;;;;;16.20;10.00;;;;;;;7.33;100.00;96141.33;107633;1266;59782;-69
2022/12/10 05:42:31;;;;;;;15.60;10.00;;;;;;;7.31;100.00;96138.01;107666;1266;72003;-69
2022/12/10 05:45:00;;;;;;;17.50;10.50;;;;;;;7.29;100.00;96138.38;107630;1269;70037;-69
2022/12/10 05:47:28;;;;;;;17.00;10.80;;;;;;;7.26;100.00;96141.70;107597;1265;69139;-69
2022/12/10 05:49:58;;;;;;;20.60;11.00;;;;;;;7.24;100.00;96141.52;107647;1269;59766;-69
2022/12/10 05:52:26;;;;;;;16.50;9.20;;;;;;;7.23;100.00;96145.63;107613;1269;59654;-69
2022/12/10 05:54:56;;;;;;;16.20;10.30;;;;;;;7.23;100.00;96146.86;107625;1269;72108;-69
2022/12/10 05:57:25;;;;;;;18.70;10.60;;;;;;;7.23;100.00;96150.48;107631;1266;68873;-69
2022/12/10 05:59:54;;;;;;;17.60;11.20;;;;;;;7.24;100.00;96146.11;107611;1269;69967;-69
2022/12/10 06:02:23;;;;;;;18.30;10.10;;;;;;;7.23;100.00;96143.17;107628;1269;59784;-69
2022/12/10 06:04:52;;;;;;;;;;;;;;;7.24;100.00;96145.33;107633;1265;59772;-69
2022/12/10 06:07:21;;;;;;;18.30;10.40;;;;;;;7.25;100.00;96144.80;107660;1265;71854;-69
2022/12/10 06:09:50;;;;;;;19.70;12.00;;;;;;;7.25;100.00;96143.52;107612;1265;69037;-69
2022/12/10 06:12:19;;;;;;;19.60;11.30;;;;;;;7.27;100.00;96139.95;107665;1269;69250;-69
2022/12/10 06:14:48;;;;;;;16.10;9.20;;;;;;;7.27;100.00;96138.73;107609;1265;59717;-69
2022/12/10 06:17:17;;;;;;;15.30;10.10;;;;;;;7.28;100.00;96137.02;107636;1269;59665;-70
2022/12/10 06:19:46;;;;;;;16.60;12.10;;;;;;;7.30;100.00;96131.05;107621;1266;71609;-70
2022/12/10 06:22:15;;;;;;;20.20;10.60;;;;;;;7.30;100.00;96133.10;107584;1269;70292;-69
2022/12/10 06:24:44;;;;;;;13.30;8.90;;;;;;;7.31;100.00;96135.59;107617;1269;69151;-69
2022/12/10 06:27:12;;;;;;;14.30;9.40;;;;;;;7.33;100.00;96130.10;107636;1265;59763;-69
2022/12/10 06:29:41;;;;;;;13.20;8.40;;;;;;;7.34;100.00;96128.63;107674;1266;59677;-70
2022/12/10 06:32:11;;;;;;;16.50;9.40;;;;;;;7.36;100.00;96127.73;107655;1266;70573;-68
2022/12/10 06:34:39;;;;;;;14.60;9.70;;;;;;;7.36;100.00;96125.30;107635;1265;69819;-70
2022/12/10 06:37:11;;;;;;;21.40;14.10;;;;;;;7.37;100.00;96121.23;107617;1269;69961;-70
2022/12/10 06:39:39;;;;;;;35.50;24.50;;;;;;;7.39;100.00;96118.48;107603;1269;59726;-70
2022/12/10 06:42:09;;;;;;;39.20;24.90;;;;;;;7.41;100.00;96115.95;107792;1269;59723;-70
2022/12/10 06:44:38;;;;;;;27.10;18.90;;;;;;;7.43;100.00;96117.14;107774;1265;72416;-70
2022/12/10 06:47:09;;;;;;;19.80;12.30;;;;;;;7.46;100.00;96119.85;107768;1266;68825;-70
2022/12/10 06:49:38;;;;;;;19.30;11.80;;;;;;;7.49;100.00;96118.91;107650;1265;69144;-70
2022/12/10 06:52:07;;;;;;;13.60;10.60;;;;;;;7.50;100.00;96118.83;107610;1269;59733;-70
2022/12/10 06:54:36;;;;;;;14.50;10.10;;;;;;;7.52;100.00;96117.13;107637;1262;59739;-70
2022/12/10 06:57:05;;;;;;;15.80;11.30;;;;;;;7.55;100.00;96117.35;107631;1265;72009;-70
2022/12/10 06:59:33;;;;;;;14.40;8.80;;;;;;;7.60;100.00;96113.12;107560;1265;69278;-70
2022/12/10 07:02:02;;;;;;;15.10;10.30;;;;;;;7.66;100.00;96103.34;107697;1269;69923;-70
2022/12/10 07:04:31;;;;;;;13.20;9.90;;;;;;;7.71;100.00;96109.84;107624;1270;59755;-69
2022/12/10 07:07:00;;;;;;;15.60;8.70;;;;;;;7.77;100.00;96110.92;107605;1265;59710;-69
2022/12/10 07:09:37;;;;;;;10.90;7.50;;;;;;;7.86;100.00;96111.42;107645;1265;72006;-69
2022/12/10 07:12:06;;;;;;;15.10;8.40;;;;;;;7.97;100.00;96113.08;107623;1265;69892;-69
2022/12/10 07:14:35;;;;;;;10.90;8.10;;;;;;;8.10;100.00;96116.30;107626;1269;70140;-69
2022/12/10 07:17:05;;;;;;;11.80;9.80;;;;;;;8.23;100.00;96116.11;107659;1267;59779;-69
2022/12/10 07:19:33;;;;;;;14.30;8.70;;;;;;;8.35;100.00;96109.23;107627;1265;59686;-69
2022/12/10 07:22:02;;;;;;;15.90;11.70;;;;;;;8.43;100.00;96110.28;107631;1266;71988;-69
2022/12/10 07:24:31;;;;;;;17.80;13.20;;;;;;;8.45;100.00;96109.13;107615;1265;69231;-70
2022/12/10 07:27:00;;;;;;;18.60;13.00;;;;;;;8.44;100.00;96109.30;107654;1265;69934;-70
2022/12/10 07:29:29;;;;;;;26.90;18.60;;;;;;;8.43;100.00;96098.50;107669;1269;59770;-70
2022/12/10 07:31:58;;;;;;;26.70;20.00;;;;;;;8.38;100.00;96101.17;107638;1265;59706;-70
2022/12/10 07:34:27;;;;;;;26.00;18.00;;;;;;;8.34;100.00;96108.77;107629;1269;71398;-69
2022/12/10 07:36:55;;;;;;;29.50;21.80;;;;;;;8.34;100.00;96112.79;107677;1266;69144;-69
2022/12/10 07:39:24;;;;;;;31.30;23.00;;;;;;;8.33;100.00;96115.97;107632;1265;69703;-69
2022/12/10 07:41:54;;;;;;;29.30;22.40;;;;;;;8.36;100.00;96114.36;107615;1269;59802;-70
2022/12/10 07:44:25;;;;;;;31.20;21.70;;;;;;;8.38;100.00;96121.27;107677;1269;60088;-71
2022/12/10 07:46:54;;;;;;;25.80;19.90;;;;;;;8.44;100.00;96121.70;107623;1269;72045;-70
2022/12/10 07:49:23;;;;;;;27.60;20.80;;;;;;;8.48;100.00;96115.95;107641;1265;69095;-69
2022/12/10 07:51:52;;;;;;;21.10;14.70;;;;;;;8.53;100.00;96109.43;107649;1265;69294;-70
2022/12/10 07:54:21;;;;;;;21.90;14.40;;;;;;;8.56;100.00;96104.98;107640;1266;59777;-70
2022/12/10 07:56:50;;;;;;;17.80;13.30;;;;;;;8.58;100.00;96102.38;107667;1266;59801;-70
2022/12/10 07:59:18;;;;;;;18.70;14.40;;;;;;;8.60;100.00;96095.48;107641;1265;70912;-70
2022/12/10 08:01:49;;;;;;;21.00;16.90;;;;;;;8.61;100.00;96091.23;107653;1269;68678;-70
2022/12/10 08:04:18;;;;;;;25.10;18.00;;;;;;;8.60;100.00;96088.73;107652;1265;69226;-70
2022/12/10 08:06:47;;;;;;;25.60;19.30;;;;;;;8.59;100.00;96093.80;107631;1261;59762;-70
2022/12/10 08:09:16;;;;;;;27.60;21.30;;;;;;;8.56;100.00;96098.75;107613;1265;59724;-70
2022/12/10 08:11:45;;;;;;;36.70;27.20;;;;;;;8.53;100.00;96097.41;107630;1266;71021;-70
2022/12/10 08:14:13;;;;;;;34.40;27.80;;;;;;;8.53;100.00;96098.52;107663;1265;68668;-70
2022/12/10 08:16:42;;;;;;;40.50;31.30;;;;;;;8.54;100.00;96095.80;107650;1269;69289;-70
2022/12/10 08:19:11;;;;;;;30.40;24.40;;;;;;;8.59;100.00;96095.23;107647;1269;59737;-71
2022/12/10 08:21:48;;;;;;;32.80;24.50;;;;;;;8.79;100.00;96102.68;107642;1269;59707;-70
2022/12/10 08:24:17;;;;;;;26.00;19.70;;;;;;;9.14;100.00;96101.23;107731;1265;70750;-70
2022/12/10 08:26:45;;;;;;;34.10;23.80;;;;;;;9.50;100.00;96102.90;107642;1269;68241;-70
2022/12/10 08:29:14;;;;;;;21.60;16.90;;;;;;;9.81;100.00;96097.86;107621;1266;68531;-70
2022/12/10 08:31:42;;;;;;;19.00;13.40;;;;;;;10.08;100.00;96102.02;107563;1269;59785;-70
2022/12/10 08:34:14;;;;;;;11.60;9.60;;;;;;;10.31;98.72;96101.88;107650;1269;59678;-69
2022/12/10 08:36:44;;;;;;;15.60;8.70;;;;;;;10.54;97.85;96096.06;107653;1261;71217;-70
2022/12/10 08:39:17;;;;;;;12.40;9.10;;;;;;;10.79;96.83;96104.71;107694;1265;68678;-70
2022/12/10 08:41:46;;;;;;;37.70;32.40;;;;;;;10.97;94.24;96104.67;107709;1265;69330;-70
2022/12/10 08:44:15;;;;;;;33.10;24.00;;;;;;;11.14;93.72;96106.59;107610;1265;59708;-70
2022/12/10 08:46:43;;;;;;;53.70;42.10;;;;;;;11.31;93.23;96110.38;107440;1268;59748;-70
2022/12/10 08:49:12;;;;;;;67.40;56.40;;;;;;;11.32;90.65;96110.45;107595;1269;70784;-70
2022/12/10 08:51:42;;;;;;;47.40;38.90;;;;;;;11.23;91.07;96105.85;107790;1269;69551;-70
2022/12/10 08:54:11;;;;;;;49.20;39.80;;;;;;;11.28;91.13;96105.98;107601;1269;68450;-70
2022/12/10 08:56:39;;;;;;;48.60;38.10;;;;;;;11.20;91.05;96102.16;107657;1263;59709;-69
2022/12/10 08:59:08;;;;;;;39.80;34.10;;;;;;;11.12;91.94;96103.21;107641;1265;59685;-69
2022/12/10 09:01:37;;;;;;;62.40;46.80;;;;;;;11.05;93.12;96104.48;107658;1269;71385;-69
2022/12/10 09:04:06;;;;;;;49.60;38.20;;;;;;;11.03;93.21;96103.08;107643;1269;70740;-70
2022/12/10 09:06:35;;;;;;;38.10;29.70;;;;;;;11.27;94.12;96095.55;107676;1265;70179;-70
2022/12/10 09:09:04;;;;;;;22.90;19.10;;;;;;;11.83;92.30;96095.14;107744;1269;59716;-70
2022/12/10 09:11:34;;;;;;;18.80;15.90;;;;;;;12.79;90.99;96082.31;107619;1265;59782;-69
2022/12/10 09:14:03;;;;;;;18.50;16.30;;;;;;;13.86;87.04;96082.52;107659;1267;71315;-70
2022/12/10 09:16:35;;;;;;;20.00;15.50;;;;;;;14.82;83.24;96077.17;107745;1269;69813;-71
2022/12/10 09:19:05;;;;;;;19.10;13.80;;;;;;;15.71;74.37;96073.52;107632;1269;69125;-72
2022/12/10 09:21:36;;;;;;;14.80;10.90;;;;;;;16.54;73.54;96077.96;107668;1269;59759;-70
2022/12/10 09:24:05;;;;;;;12.10;8.70;;;;;;;17.37;66.88;96068.83;107651;1269;59774;-70
2022/12/10 09:26:34;;;;;;;11.60;9.00;;;;;;;17.88;66.83;96066.11;107644;1269;71932;-70
2022/12/10 09:29:02;;;;;;;12.10;7.90;;;;;;;18.23;68.33;96062.98;107640;1269;69702;-70
2022/12/10 09:31:32;;;;;;;16.50;11.30;;;;;;;18.60;61.42;96063.98;107639;1269;69122;-70
2022/12/10 09:34:00;;;;;;;20.70;15.10;;;;;;;18.81;60.54;96060.89;107762;1269;59791;-71
2022/12/10 09:36:29;;;;;;;16.40;11.80;;;;;;;19.58;64.27;96054.05;107658;1269;59671;-70
2022/12/10 09:39:02;;;;;;;15.40;13.00;;;;;;;19.98;60.42;96056.69;107746;1269;70723;-71
2022/12/10 09:41:43;;;;;;;19.20;14.20;;;;;;;20.18;55.92;96051.92;107685;1260;69683;-71
2022/12/10 09:44:29;;;;;;;16.90;13.50;;;;;;;20.06;52.26;96050.54;107756;1269;69935;-71
2022/12/10 09:47:00;;;;;;;14.10;10.40;;;;;;;19.78;52.95;96051.58;107600;1269;59781;-71
2022/12/10 09:50:06;;;;;;;10.00;7.70;;;;;;;20.15;56.70;96046.13;107629;1265;59789;-71
2022/12/10 09:52:45;;;;;;;14.10;8.80;;;;;;;20.13;54.25;96034.55;107641;1265;72402;-71
2022/12/10 09:55:17;;;;;;;8.70;6.80;;;;;;;19.88;54.79;96034.86;107789;1265;68510;-72
2022/12/10 09:57:51;;;;;;;10.00;6.40;;;;;;;19.27;54.52;96029.45;107640;1265;69825;-71
2022/12/10 10:00:22;;;;;;;8.50;4.70;;;;;;;18.78;56.23;96029.46;107419;1269;59746;-72
2022/12/10 10:02:54;;;;;;;8.30;4.90;;;;;;;18.09;57.12;96032.41;107759;1266;59706;-72
2022/12/10 10:05:28;;;;;;;7.80;5.10;;;;;;;17.74;59.07;96036.27;107648;1262;72132;-70
2022/12/10 10:08:01;;;;;;;7.10;4.90;;;;;;;17.40;59.71;96036.23;107665;1269;69870;-72
2022/12/10 10:10:36;;;;;;;7.10;4.40;;;;;;;17.08;60.73;96029.18;107628;1269;68652;-71
2022/12/10 10:13:07;;;;;;;8.60;4.90;;;;;;;16.74;61.24;96030.12;107757;1265;59686;-71
2022/12/10 10:15:41;;;;;;;9.20;5.30;;;;;;;16.50;61.79;96026.83;107615;1269;59688;-71
2022/12/10 10:18:25;;;;;;;9.20;4.90;;;;;;;16.27;62.49;96025.97;107611;1268;71517;-71
2022/12/10 10:20:55;;;;;;;8.60;4.30;;;;;;;16.37;62.33;96025.38;107674;1266;68675;-72
2022/12/10 10:23:24;;;;;;;7.10;3.80;;;;;;;17.06;62.12;96027.38;107631;1269;69089;-72
2022/12/10 10:25:52;;;;;;;6.30;3.20;;;;;;;18.19;59.01;96029.50;107321;1269;424349;-72
2022/12/10 10:28:23;;;;;;;10.60;4.00;;;;;;;19.29;58.00;96030.11;107701;1265;59743;-72
2022/12/10 10:30:53;;;;;;;5.90;3.40;;;;;;;20.32;54.54;96032.20;107620;1265;71213;-74
2022/12/10 10:33:22;;;;;;;7.20;3.30;;;;;;;21.02;52.06;96033.21;107670;1269;68263;-73
2022/12/10 10:35:58;;;;;;;9.00;3.30;;;;;;;21.52;51.20;96032.35;107672;1269;69663;-72
2022/12/10 10:38:29;;;;;;;5.90;3.20;;;;;;;21.46;49.02;96030.70;107774;1269;59840;-72
2022/12/10 10:40:59;;;;;;;6.40;2.90;;;;;;;21.50;48.37;96026.50;107621;1269;59789;-72
2022/12/10 10:43:33;;;;;;;7.00;3.60;;;;;;;22.20;49.94;96028.77;107628;1269;71983;-72
2022/12/10 10:46:12;;;;;;;5.40;2.80;;;;;;;22.37;46.92;96019.67;107676;1269;68323;-72
2022/12/10 10:48:41;;;;;;;6.10;3.00;;;;;;;22.68;48.22;96014.11;107640;1269;68510;-73
2022/12/10 10:51:15;;;;;;;4.40;2.70;;;;;;;22.76;45.87;96005.67;107607;1269;59690;-72
2022/12/10 10:53:47;;;;;;;5.20;2.90;;;;;;;23.07;46.10;95997.94;107714;1265;59703;-72
2022/12/10 10:56:18;;;;;;;7.20;3.20;;;;;;;23.53;43.14;95997.80;107781;1265;72073;-72
2022/12/10 10:58:52;;;;;;;4.90;2.70;;;;;;;23.73;43.16;95997.99;107769;1265;69725;-72
2022/12/10 11:01:25;;;;;;;4.90;2.90;;;;;;;24.29;41.69;95992.48;107604;1265;69323;-72
2022/12/10 11:03:59;;;;;;;5.90;3.20;;;;;;;24.61;42.04;95986.80;107759;1265;59718;-71
2022/12/10 11:06:28;;;;;;;6.10;3.00;;;;;;;24.40;41.06;95982.11;107765;1269;60109;-71
2022/12/10 11:08:58;;;;;;;5.40;3.10;;;;;;;24.08;41.78;95982.90;107738;1265;71795;-71
2022/12/10 11:11:50;;;;;;;5.50;3.00;;;;;;;23.65;42.44;95977.00;107617;1269;68431;-72
2022/12/10 11:14:24;;;;;;;5.90;2.90;;;;;;;23.01;43.21;95971.09;107660;1269;69300;-72
2022/12/10 11:17:14;;;;;;;5.90;2.60;;;;;;;22.91;43.64;95967.71;107758;1265;59774;-73
2022/12/10 11:20:01;;;;;;;6.00;3.40;;;;;;;23.22;43.82;95966.64;107590;1262;59747;-71
2022/12/10 11:22:33;;;;;;;5.70;3.10;;;;;;;23.17;42.05;95958.30;107647;1264;71392;-71
2022/12/10 11:25:01;;;;;;;6.00;3.00;;;;;;;23.58;43.57;95957.19;107669;1269;69704;-71
2022/12/10 11:28:27;;;;;;;5.30;3.00;;;;;;;24.16;41.76;95947.48;107608;1269;70031;-70
2022/12/10 11:31:18;;;;;;;5.20;3.30;;;;;;;24.61;39.50;95945.41;106877;1269;59706;-72
2022/12/10 11:34:14;;;;;;;5.30;3.20;;;;;;;25.09;40.39;95940.66;106894;1274;59747;-72
2022/12/10 11:36:46;;;;;;;6.00;3.20;;;;;;;25.21;39.20;95935.00;107613;1269;71425;-72
2022/12/10 11:39:20;;;;;;;4.40;2.90;;;;;;;25.37;38.21;95926.12;107656;1269;69297;-71
2022/12/10 11:41:57;;;;;;;7.00;3.40;;;;;;;25.21;38.43;95931.73;107629;1265;69138;-71
2022/12/10 11:44:51;;;;;;;5.80;2.70;;;;;;;24.72;37.10;95928.75;107612;1269;59782;-73
2022/12/10 11:47:29;;;;;;;5.10;2.70;;;;;;;24.82;38.73;95925.67;107624;1269;59733;-71
2022/12/10 11:50:09;;;;;;;5.00;2.70;;;;;;;25.00;38.41;95920.54;107662;1266;71364;-71
2022/12/10 11:53:14;;;;;;;5.60;2.80;;;;;;;24.87;38.68;95917.07;107633;1266;69174;-71
2022/12/10 11:56:05;;;;;;;4.60;2.90;;;;;;;24.80;38.73;95913.67;107610;1269;68836;-72